< < Back
Terminal Aerodrome Forecast


Current Version              Previous Versions:   1  2  3  4  5  6  7  8  9  

Terminal Aerodrome Forecast

003
FTUS42 KJAX 302325
TAFGNV
TAF
KGNV 302325Z 0100/0124 VRB03KT P6SM SCT040 SCT100 BKN250
     FM011400 25006KT P6SM SCT030 SCT250
     FM011700 26007KT P6SM VCTS BKN040CB BKN250
     FM012100 23005KT P6SM VCSH SCT040 BKN250=

Latest METAR

800
SAUS70 KWBC 011700 RRO
MTRGNV
METAR KGNV 011653Z 29010KT 10SM SCT029 BKN037 BKN047 31/24 A3005 RMK AO2
LTG DSNT SE-SW SLP173 T03110239


USA.gov is the U.S. government's official web portal to all federal, state and local government web resources and services.